sensor_id;sensor_type;location;lat;lon;timestamp;temperature;humidity
43087;DHT22;28708;52.224;6.924;2023-02-04T00:01:29;6.60;99.90
43087;DHT22;28708;52.224;6.924;2023-02-04T00:03:54;6.60;99.90
43087;DHT22;28708;52.224;6.924;2023-02-04T00:06:20;6.60;99.90
43087;DHT22;28708;52.224;6.924;2023-02-04T00:08:46;6.70;99.90
43087;DHT22;28708;52.224;6.924;2023-02-04T00:11:11;6.70;99.90
43087;DHT22;28708;52.224;6.924;2023-02-04T00:13:37;6.70;99.90
43087;DHT22;28708;52.224;6.924;2023-02-04T00:16:03;6.70;99.90
43087;DHT22;28708;52.224;6.924;2023-02-04T00:18:29;6.70;99.90
43087;DHT22;28708;52.224;6.924;2023-02-04T00:20:54;6.70;99.90
43087;DHT22;28708;52.224;6.924;2023-02-04T00:23:20;6.70;99.90
43087;DHT22;28708;52.224;6.924;2023-02-04T00:25:45;6.70;99.90
43087;DHT22;28708;52.224;6.924;2023-02-04T00:28:11;6.70;99.90
43087;DHT22;28708;52.224;6.924;2023-02-04T00:30:37;6.70;99.90
43087;DHT22;28708;52.224;6.924;2023-02-04T00:33:02;6.70;99.90
43087;DHT22;28708;52.224;6.924;2023-02-04T00:35:28;6.80;99.90
43087;DHT22;28708;52.224;6.924;2023-02-04T00:37:54;6.80;99.90
43087;DHT22;28708;52.224;6.924;2023-02-04T00:40:19;6.80;99.90
43087;DHT22;28708;52.224;6.924;2023-02-04T00:42:45;6.80;99.90
43087;DHT22;28708;52.224;6.924;2023-02-04T00:45:11;6.80;99.90
43087;DHT22;28708;52.224;6.924;2023-02-04T00:47:37;6.80;99.90
43087;DHT22;28708;52.224;6.924;2023-02-04T00:50:04;6.80;99.90
43087;DHT22;28708;52.224;6.924;2023-02-04T00:52:29;6.80;99.90
43087;DHT22;28708;52.224;6.924;2023-02-04T00:54:55;6.70;99.90
43087;DHT22;28708;52.224;6.924;2023-02-04T00:57:21;6.80;99.90
43087;DHT22;28708;52.224;6.924;2023-02-04T00:59:46;6.80;99.90
43087;DHT22;28708;52.224;6.924;2023-02-04T01:02:12;6.80;99.90
43087;DHT22;28708;52.224;6.924;2023-02-04T01:04:38;6.80;99.90
43087;DHT22;28708;52.224;6.924;2023-02-04T01:07:04;6.80;99.90
43087;DHT22;28708;52.224;6.924;2023-02-04T01:09:30;6.80;99.90
43087;DHT22;28708;52.224;6.924;2023-02-04T01:11:55;6.80;99.90
43087;DHT22;28708;52.224;6.924;2023-02-04T01:14:21;6.80;99.90
43087;DHT22;28708;52.224;6.924;2023-02-04T01:16:47;6.90;99.90
43087;DHT22;28708;52.224;6.924;2023-02-04T01:19:13;6.80;99.90
43087;DHT22;28708;52.224;6.924;2023-02-04T01:21:38;6.80;99.90
43087;DHT22;28708;52.224;6.924;2023-02-04T01:24:04;6.80;99.90
43087;DHT22;28708;52.224;6.924;2023-02-04T01:26:31;6.80;99.90
43087;DHT22;28708;52.224;6.924;2023-02-04T01:28:57;6.80;99.90
43087;DHT22;28708;52.224;6.924;2023-02-04T01:31:24;6.80;99.90
43087;DHT22;28708;52.224;6.924;2023-02-04T01:33:49;6.80;99.90
43087;DHT22;28708;52.224;6.924;2023-02-04T01:36:16;6.80;99.90
43087;DHT22;28708;52.224;6.924;2023-02-04T01:38:49;6.80;99.90
43087;DHT22;28708;52.224;6.924;2023-02-04T01:41:15;6.80;99.90
43087;DHT22;28708;52.224;6.924;2023-02-04T01:43:41;6.80;99.90
43087;DHT22;28708;52.224;6.924;2023-02-04T01:46:07;6.80;99.90
43087;DHT22;28708;52.224;6.924;2023-02-04T01:48:33;6.90;99.90
43087;DHT22;28708;52.224;6.924;2023-02-04T01:51:05;6.80;99.90
43087;DHT22;28708;52.224;6.924;2023-02-04T01:53:32;6.90;99.90
43087;DHT22;28708;52.224;6.924;2023-02-04T01:55:58;6.80;99.90
43087;DHT22;28708;52.224;6.924;2023-02-04T01:58:25;6.80;99.90
43087;DHT22;28708;52.224;6.924;2023-02-04T02:00:50;6.80;99.90
43087;DHT22;28708;52.224;6.924;2023-02-04T02:03:16;6.80;99.90
43087;DHT22;28708;52.224;6.924;2023-02-04T02:05:44;6.70;99.90
43087;DHT22;28708;52.224;6.924;2023-02-04T02:08:11;6.80;99.90
43087;DHT22;28708;52.224;6.924;2023-02-04T02:10:39;6.80;99.90
43087;DHT22;28708;52.224;6.924;2023-02-04T02:13:07;6.80;99.90
43087;DHT22;28708;52.224;6.924;2023-02-04T02:15:37;6.80;99.90
43087;DHT22;28708;52.224;6.924;2023-02-04T02:18:04;6.80;99.90
43087;DHT22;28708;52.224;6.924;2023-02-04T02:20:31;6.80;99.90
43087;DHT22;28708;52.224;6.924;2023-02-04T02:25:32;6.80;99.90
43087;DHT22;28708;52.224;6.924;2023-02-04T02:27:58;6.80;99.90
43087;DHT22;28708;52.224;6.924;2023-02-04T02:30:25;6.80;99.90
43087;DHT22;28708;52.224;6.924;2023-02-04T02:32:52;6.80;99.90
43087;DHT22;28708;52.224;6.924;2023-02-04T02:35:19;6.80;99.90
43087;DHT22;28708;52.224;6.924;2023-02-04T02:37:44;6.80;99.90
43087;DHT22;28708;52.224;6.924;2023-02-04T02:40:11;6.80;99.90
43087;DHT22;28708;52.224;6.924;2023-02-04T02:42:38;6.80;99.90
43087;DHT22;28708;52.224;6.924;2023-02-04T02:45:11;6.80;99.90
43087;DHT22;28708;52.224;6.924;2023-02-04T02:47:40;6.80;99.90
43087;DHT22;28708;52.224;6.924;2023-02-04T02:50:07;6.80;99.90
43087;DHT22;28708;52.224;6.924;2023-02-04T02:52:35;6.80;99.90
43087;DHT22;28708;52.224;6.924;2023-02-04T02:55:01;6.80;99.90
43087;DHT22;28708;52.224;6.924;2023-02-04T02:57:27;6.80;99.90
43087;DHT22;28708;52.224;6.924;2023-02-04T02:59:53;6.80;99.90
43087;DHT22;28708;52.224;6.924;2023-02-04T03:02:21;6.80;99.90
43087;DHT22;28708;52.224;6.924;2023-02-04T03:04:52;6.80;99.90
43087;DHT22;28708;52.224;6.924;2023-02-04T03:07:23;6.80;99.90
43087;DHT22;28708;52.224;6.924;2023-02-04T03:09:48;6.70;99.90
43087;DHT22;28708;52.224;6.924;2023-02-04T03:12:15;6.80;99.90
43087;DHT22;28708;52.224;6.924;2023-02-04T03:14:41;6.80;99.90
43087;DHT22;28708;52.224;6.924;2023-02-04T03:17:08;6.80;99.90
43087;DHT22;28708;52.224;6.924;2023-02-04T03:19:34;6.80;99.90
43087;DHT22;28708;52.224;6.924;2023-02-04T03:22:02;6.80;99.90
43087;DHT22;28708;52.224;6.924;2023-02-04T03:24:28;6.80;99.90
43087;DHT22;28708;52.224;6.924;2023-02-04T03:26:56;6.80;99.90
43087;DHT22;28708;52.224;6.924;2023-02-04T03:29:21;6.80;99.90
43087;DHT22;28708;52.224;6.924;2023-02-04T03:31:47;6.80;99.90
43087;DHT22;28708;52.224;6.924;2023-02-04T03:34:13;6.70;99.90
43087;DHT22;28708;52.224;6.924;2023-02-04T03:36:38;6.70;99.90
43087;DHT22;28708;52.224;6.924;2023-02-04T03:39:04;6.70;99.90
43087;DHT22;28708;52.224;6.924;2023-02-04T03:41:30;6.70;99.90
43087;DHT22;28708;52.224;6.924;2023-02-04T03:43:55;6.60;99.90
43087;DHT22;28708;52.224;6.924;2023-02-04T03:46:21;6.70;99.90
43087;DHT22;28708;52.224;6.924;2023-02-04T03:48:48;6.70;99.90
43087;DHT22;28708;52.224;6.924;2023-02-04T03:51:14;6.60;99.90
43087;DHT22;28708;52.224;6.924;2023-02-04T03:53:39;6.60;99.90
43087;DHT22;28708;52.224;6.924;2023-02-04T03:56:05;6.70;99.90
43087;DHT22;28708;52.224;6.924;2023-02-04T03:58:31;6.60;99.90
43087;DHT22;28708;52.224;6.924;2023-02-04T04:00:57;6.60;99.90
43087;DHT22;28708;52.224;6.924;2023-02-04T04:03:23;6.60;99.90
43087;DHT22;28708;52.224;6.924;2023-02-04T04:05:48;6.70;99.90
43087;DHT22;28708;52.224;6.924;2023-02-04T04:08:14;6.70;99.90
43087;DHT22;28708;52.224;6.924;2023-02-04T04:10:39;6.70;99.90
43087;DHT22;28708;52.224;6.924;2023-02-04T04:13:05;6.80;99.90
43087;DHT22;28708;52.224;6.924;2023-02-04T04:15:31;6.80;99.90
43087;DHT22;28708;52.224;6.924;2023-02-04T04:17:57;6.80;99.90
43087;DHT22;28708;52.224;6.924;2023-02-04T04:20:22;6.80;99.90
43087;DHT22;28708;52.224;6.924;2023-02-04T04:22:50;6.70;99.90
43087;DHT22;28708;52.224;6.924;2023-02-04T04:25:16;6.80;99.90
43087;DHT22;28708;52.224;6.924;2023-02-04T04:27:42;6.80;99.90
43087;DHT22;28708;52.224;6.924;2023-02-04T04:30:08;6.80;99.90
43087;DHT22;28708;52.224;6.924;2023-02-04T04:32:35;6.80;99.90
43087;DHT22;28708;52.224;6.924;2023-02-04T04:35:00;6.80;99.90
43087;DHT22;28708;52.224;6.924;2023-02-04T04:37:26;6.80;99.90
43087;DHT22;28708;52.224;6.924;2023-02-04T04:39:52;6.80;99.90
43087;DHT22;28708;52.224;6.924;2023-02-04T04:42:17;6.80;99.90
43087;DHT22;28708;52.224;6.924;2023-02-04T04:44:43;6.80;99.90
43087;DHT22;28708;52.224;6.924;2023-02-04T04:47:09;6.80;99.90
43087;DHT22;28708;52.224;6.924;2023-02-04T04:49:34;6.80;99.90
43087;DHT22;28708;52.224;6.924;2023-02-04T04:52:00;6.70;99.90
43087;DHT22;28708;52.224;6.924;2023-02-04T04:54:26;6.70;99.90
43087;DHT22;28708;52.224;6.924;2023-02-04T04:56:51;6.70;99.90
43087;DHT22;28708;52.224;6.924;2023-02-04T04:59:17;6.70;99.90
43087;DHT22;28708;52.224;6.924;2023-02-04T05:01:43;6.70;99.90
43087;DHT22;28708;52.224;6.924;2023-02-04T05:04:08;6.70;99.90
43087;DHT22;28708;52.224;6.924;2023-02-04T05:06:34;6.60;99.90
43087;DHT22;28708;52.224;6.924;2023-02-04T05:08:59;6.70;99.90
43087;DHT22;28708;52.224;6.924;2023-02-04T05:11:25;6.70;99.90
43087;DHT22;28708;52.224;6.924;2023-02-04T05:13:51;6.70;99.90
43087;DHT22;28708;52.224;6.924;2023-02-04T05:16:16;6.70;99.90
43087;DHT22;28708;52.224;6.924;2023-02-04T05:18:42;6.60;99.90
43087;DHT22;28708;52.224;6.924;2023-02-04T05:21:08;6.70;99.90
43087;DHT22;28708;52.224;6.924;2023-02-04T05:23:34;6.70;99.90
43087;DHT22;28708;52.224;6.924;2023-02-04T05:26:00;6.70;99.90
43087;DHT22;28708;52.224;6.924;2023-02-04T05:28:25;6.70;99.90
43087;DHT22;28708;52.224;6.924;2023-02-04T05:30:51;6.70;99.90
43087;DHT22;28708;52.224;6.924;2023-02-04T05:33:17;6.70;99.90
43087;DHT22;28708;52.224;6.924;2023-02-04T05:35:42;6.80;99.90
43087;DHT22;28708;52.224;6.924;2023-02-04T05:38:08;6.70;99.90
43087;DHT22;28708;52.224;6.924;2023-02-04T05:40:34;6.80;99.90
43087;DHT22;28708;52.224;6.924;2023-02-04T05:43:00;6.80;99.90
43087;DHT22;28708;52.224;6.924;2023-02-04T05:45:25;6.80;99.90
43087;DHT22;28708;52.224;6.924;2023-02-04T05:47:51;6.80;99.90
43087;DHT22;28708;52.224;6.924;2023-02-04T05:50:17;6.80;99.90
43087;DHT22;28708;52.224;6.924;2023-02-04T05:52:42;6.80;99.90
43087;DHT22;28708;52.224;6.924;2023-02-04T05:55:10;6.80;99.90
43087;DHT22;28708;52.224;6.924;2023-02-04T05:57:36;6.80;99.90
43087;DHT22;28708;52.224;6.924;2023-02-04T06:00:06;6.80;99.90
43087;DHT22;28708;52.224;6.924;2023-02-04T06:02:37;6.80;99.90
43087;DHT22;28708;52.224;6.924;2023-02-04T06:05:03;6.80;99.90
43087;DHT22;28708;52.224;6.924;2023-02-04T06:07:28;6.80;99.90
43087;DHT22;28708;52.224;6.924;2023-02-04T06:09:54;6.80;99.90
43087;DHT22;28708;52.224;6.924;2023-02-04T06:12:20;6.80;99.90
43087;DHT22;28708;52.224;6.924;2023-02-04T06:14:45;6.70;99.90
43087;DHT22;28708;52.224;6.924;2023-02-04T06:17:11;6.70;99.90
43087;DHT22;28708;52.224;6.924;2023-02-04T06:19:36;6.70;99.90
43087;DHT22;28708;52.224;6.924;2023-02-04T06:22:02;6.70;99.90
43087;DHT22;28708;52.224;6.924;2023-02-04T06:24:28;6.70;99.90
43087;DHT22;28708;52.224;6.924;2023-02-04T06:26:54;6.80;99.90
43087;DHT22;28708;52.224;6.924;2023-02-04T06:29:19;6.70;99.90
43087;DHT22;28708;52.224;6.924;2023-02-04T06:31:45;6.70;99.90
43087;DHT22;28708;52.224;6.924;2023-02-04T06:34:11;6.70;99.90
43087;DHT22;28708;52.224;6.924;2023-02-04T06:36:37;6.70;99.90
43087;DHT22;28708;52.224;6.924;2023-02-04T06:39:02;6.70;99.90
43087;DHT22;28708;52.224;6.924;2023-02-04T06:41:28;6.80;99.90
43087;DHT22;28708;52.224;6.924;2023-02-04T06:43:53;6.80;99.90
43087;DHT22;28708;52.224;6.924;2023-02-04T06:46:19;6.80;99.90
43087;DHT22;28708;52.224;6.924;2023-02-04T06:48:45;6.70;99.90
43087;DHT22;28708;52.224;6.924;2023-02-04T06:51:10;6.70;99.90
43087;DHT22;28708;52.224;6.924;2023-02-04T06:53:36;6.70;99.90
43087;DHT22;28708;52.224;6.924;2023-02-04T06:56:02;6.80;99.90
43087;DHT22;28708;52.224;6.924;2023-02-04T06:58:27;6.80;99.90
43087;DHT22;28708;52.224;6.924;2023-02-04T07:00:53;6.80;99.90
43087;DHT22;28708;52.224;6.924;2023-02-04T07:03:19;6.70;99.90
43087;DHT22;28708;52.224;6.924;2023-02-04T07:05:44;6.70;99.90
43087;DHT22;28708;52.224;6.924;2023-02-04T07:08:10;6.80;99.90
43087;DHT22;28708;52.224;6.924;2023-02-04T07:10:35;6.70;99.90
43087;DHT22;28708;52.224;6.924;2023-02-04T07:13:01;6.70;99.90
43087;DHT22;28708;52.224;6.924;2023-02-04T07:15:27;6.80;99.90
43087;DHT22;28708;52.224;6.924;2023-02-04T07:17:52;6.80;99.90
43087;DHT22;28708;52.224;6.924;2023-02-04T07:20:18;6.80;99.90
43087;DHT22;28708;52.224;6.924;2023-02-04T07:22:44;6.90;99.90
43087;DHT22;28708;52.224;6.924;2023-02-04T07:25:09;6.90;99.90
43087;DHT22;28708;52.224;6.924;2023-02-04T07:27:39;6.90;99.90
43087;DHT22;28708;52.224;6.924;2023-02-04T07:30:05;6.90;99.90
43087;DHT22;28708;52.224;6.924;2023-02-04T07:32:30;6.90;99.90
43087;DHT22;28708;52.224;6.924;2023-02-04T07:34:59;7.00;99.90
43087;DHT22;28708;52.224;6.924;2023-02-04T07:37:25;7.00;99.90
43087;DHT22;28708;52.224;6.924;2023-02-04T07:39:50;7.00;99.90
43087;DHT22;28708;52.224;6.924;2023-02-04T07:42:16;7.00;99.90
43087;DHT22;28708;52.224;6.924;2023-02-04T07:44:50;7.00;99.90
43087;DHT22;28708;52.224;6.924;2023-02-04T07:47:15;6.90;99.90
43087;DHT22;28708;52.224;6.924;2023-02-04T07:49:41;6.90;99.90
43087;DHT22;28708;52.224;6.924;2023-02-04T07:52:07;7.00;99.90
43087;DHT22;28708;52.224;6.924;2023-02-04T07:54:34;7.00;99.90
43087;DHT22;28708;52.224;6.924;2023-02-04T07:56:59;7.00;99.90
43087;DHT22;28708;52.224;6.924;2023-02-04T07:59:25;7.00;99.90
43087;DHT22;28708;52.224;6.924;2023-02-04T08:01:50;7.00;99.90
43087;DHT22;28708;52.224;6.924;2023-02-04T08:04:16;7.10;99.90
43087;DHT22;28708;52.224;6.924;2023-02-04T08:06:42;7.20;99.90
43087;DHT22;28708;52.224;6.924;2023-02-04T08:09:07;7.20;99.90
43087;DHT22;28708;52.224;6.924;2023-02-04T08:11:33;7.30;99.90
43087;DHT22;28708;52.224;6.924;2023-02-04T08:13:58;7.40;99.90
43087;DHT22;28708;52.224;6.924;2023-02-04T08:16:24;7.40;99.90
43087;DHT22;28708;52.224;6.924;2023-02-04T08:18:50;7.40;99.90
43087;DHT22;28708;52.224;6.924;2023-02-04T08:21:15;7.40;99.90
43087;DHT22;28708;52.224;6.924;2023-02-04T08:23:41;7.40;99.90
43087;DHT22;28708;52.224;6.924;2023-02-04T08:26:10;7.50;99.90
43087;DHT22;28708;52.224;6.924;2023-02-04T08:28:36;7.50;99.90
43087;DHT22;28708;52.224;6.924;2023-02-04T08:31:06;7.40;99.90
43087;DHT22;28708;52.224;6.924;2023-02-04T08:33:36;7.40;99.90
43087;DHT22;28708;52.224;6.924;2023-02-04T08:36:03;7.40;99.90
43087;DHT22;28708;52.224;6.924;2023-02-04T08:38:29;7.40;99.90
43087;DHT22;28708;52.224;6.924;2023-02-04T08:40:54;7.40;99.90
43087;DHT22;28708;52.224;6.924;2023-02-04T08:43:20;7.40;99.90
43087;DHT22;28708;52.224;6.924;2023-02-04T08:45:46;7.40;99.90
43087;DHT22;28708;52.224;6.924;2023-02-04T08:48:11;7.40;99.90
43087;DHT22;28708;52.224;6.924;2023-02-04T08:50:37;7.40;99.90
43087;DHT22;28708;52.224;6.924;2023-02-04T08:53:03;7.50;99.90
43087;DHT22;28708;52.224;6.924;2023-02-04T08:55:28;7.50;99.90
43087;DHT22;28708;52.224;6.924;2023-02-04T08:57:54;7.60;99.90
43087;DHT22;28708;52.224;6.924;2023-02-04T09:00:20;7.60;99.90
43087;DHT22;28708;52.224;6.924;2023-02-04T09:02:45;7.60;99.90
43087;DHT22;28708;52.224;6.924;2023-02-04T09:05:11;7.60;99.90
43087;DHT22;28708;52.224;6.924;2023-02-04T09:07:37;7.60;99.90
43087;DHT22;28708;52.224;6.924;2023-02-04T09:10:02;7.70;99.90
43087;DHT22;28708;52.224;6.924;2023-02-04T09:12:28;7.80;99.90
43087;DHT22;28708;52.224;6.924;2023-02-04T09:14:54;7.80;99.90
43087;DHT22;28708;52.224;6.924;2023-02-04T09:17:19;7.80;99.90
43087;DHT22;28708;52.224;6.924;2023-02-04T09:19:45;7.70;99.90
43087;DHT22;28708;52.224;6.924;2023-02-04T09:22:11;7.90;99.90
43087;DHT22;28708;52.224;6.924;2023-02-04T09:24:37;7.90;99.90
43087;DHT22;28708;52.224;6.924;2023-02-04T09:27:03;7.80;99.90
43087;DHT22;28708;52.224;6.924;2023-02-04T09:29:29;7.80;99.90
43087;DHT22;28708;52.224;6.924;2023-02-04T09:31:54;7.90;99.90
43087;DHT22;28708;52.224;6.924;2023-02-04T09:34:20;8.10;99.90
43087;DHT22;28708;52.224;6.924;2023-02-04T09:36:46;8.10;99.90
43087;DHT22;28708;52.224;6.924;2023-02-04T09:39:11;8.10;99.90
43087;DHT22;28708;52.224;6.924;2023-02-04T09:41:38;8.00;99.90
43087;DHT22;28708;52.224;6.924;2023-02-04T09:44:13;8.00;99.90
43087;DHT22;28708;52.224;6.924;2023-02-04T09:46:45;8.00;99.90
43087;DHT22;28708;52.224;6.924;2023-02-04T09:49:11;8.10;99.90
43087;DHT22;28708;52.224;6.924;2023-02-04T09:51:37;8.10;99.90
43087;DHT22;28708;52.224;6.924;2023-02-04T09:54:06;8.10;99.90
43087;DHT22;28708;52.224;6.924;2023-02-04T09:56:33;8.20;99.90
43087;DHT22;28708;52.224;6.924;2023-02-04T09:58:59;8.20;99.90
43087;DHT22;28708;52.224;6.924;2023-02-04T10:01:25;8.40;99.90
43087;DHT22;28708;52.224;6.924;2023-02-04T10:03:52;8.60;99.90
43087;DHT22;28708;52.224;6.924;2023-02-04T10:06:22;8.80;99.90
43087;DHT22;28708;52.224;6.924;2023-02-04T10:08:50;8.80;99.90
43087;DHT22;28708;52.224;6.924;2023-02-04T10:11:17;8.70;99.90
43087;DHT22;28708;52.224;6.924;2023-02-04T10:13:49;8.60;99.90
43087;DHT22;28708;52.224;6.924;2023-02-04T10:16:27;8.70;99.90
43087;DHT22;28708;52.224;6.924;2023-02-04T10:19:02;9.00;99.90
43087;DHT22;28708;52.224;6.924;2023-02-04T10:21:30;9.10;99.90
43087;DHT22;28708;52.224;6.924;2023-02-04T10:24:03;9.10;99.90
43087;DHT22;28708;52.224;6.924;2023-02-04T10:26:30;9.10;99.90
43087;DHT22;28708;52.224;6.924;2023-02-04T10:29:12;9.20;99.90
43087;DHT22;28708;52.224;6.924;2023-02-04T10:31:40;9.00;99.90
43087;DHT22;28708;52.224;6.924;2023-02-04T10:37:18;8.60;99.90
43087;DHT22;28708;52.224;6.924;2023-02-04T10:39:44;8.60;99.90
43087;DHT22;28708;52.224;6.924;2023-02-04T10:42:29;8.40;99.90
43087;DHT22;28708;52.224;6.924;2023-02-04T10:44:56;8.30;99.90
43087;DHT22;28708;52.224;6.924;2023-02-04T10:47:24;8.20;99.90
43087;DHT22;28708;52.224;6.924;2023-02-04T10:50:03;8.10;99.90
43087;DHT22;28708;52.224;6.924;2023-02-04T10:52:38;8.20;99.90
43087;DHT22;28708;52.224;6.924;2023-02-04T10:55:09;8.20;99.90
43087;DHT22;28708;52.224;6.924;2023-02-04T10:57:41;8.20;99.90
43087;DHT22;28708;52.224;6.924;2023-02-04T11:00:15;8.20;99.90
43087;DHT22;28708;52.224;6.924;2023-02-04T11:02:47;8.20;99.90
43087;DHT22;28708;52.224;6.924;2023-02-04T11:05:18;8.30;99.90
43087;DHT22;28708;52.224;6.924;2023-02-04T11:07:45;8.40;99.90
43087;DHT22;28708;52.224;6.924;2023-02-04T11:10:20;8.50;99.90
43087;DHT22;28708;52.224;6.924;2023-02-04T11:13:19;8.80;99.90
43087;DHT22;28708;52.224;6.924;2023-02-04T11:15:46;9.00;99.90
43087;DHT22;28708;52.224;6.924;2023-02-04T11:20:43;9.30;99.90
43087;DHT22;28708;52.224;6.924;2023-02-04T11:26:13;9.60;99.90
43087;DHT22;28708;52.224;6.924;2023-02-04T11:31:29;11.00;99.90
43087;DHT22;28708;52.224;6.924;2023-02-04T11:39:47;14.60;99.90
43087;DHT22;28708;52.224;6.924;2023-02-04T11:45:14;16.30;99.90
43087;DHT22;28708;52.224;6.924;2023-02-04T11:47:41;16.90;99.90
43087;DHT22;28708;52.224;6.924;2023-02-04T11:50:23;16.90;99.90
43087;DHT22;28708;52.224;6.924;2023-02-04T11:52:50;16.00;99.90
43087;DHT22;28708;52.224;6.924;2023-02-04T11:55:16;14.00;99.90
43087;DHT22;28708;52.224;6.924;2023-02-04T11:57:44;12.80;99.90
43087;DHT22;28708;52.224;6.924;2023-02-04T12:00:21;11.90;99.90
43087;DHT22;28708;52.224;6.924;2023-02-04T12:02:59;11.10;99.90
43087;DHT22;28708;52.224;6.924;2023-02-04T12:05:43;10.70;99.90
43087;DHT22;28708;52.224;6.924;2023-02-04T12:08:38;10.70;99.90
43087;DHT22;28708;52.224;6.924;2023-02-04T12:11:10;10.30;99.90
43087;DHT22;28708;52.224;6.924;2023-02-04T12:13:52;10.10;99.90
43087;DHT22;28708;52.224;6.924;2023-02-04T12:16:18;10.10;99.90
43087;DHT22;28708;52.224;6.924;2023-02-04T12:18:44;10.30;99.90
43087;DHT22;28708;52.224;6.924;2023-02-04T12:21:10;10.40;99.90
43087;DHT22;28708;52.224;6.924;2023-02-04T12:23:36;10.10;99.90
43087;DHT22;28708;52.224;6.924;2023-02-04T12:26:02;10.20;99.90
43087;DHT22;28708;52.224;6.924;2023-02-04T12:28:27;10.20;99.90
43087;DHT22;28708;52.224;6.924;2023-02-04T12:30:54;10.50;99.90
43087;DHT22;28708;52.224;6.924;2023-02-04T12:33:19;10.90;99.90
43087;DHT22;28708;52.224;6.924;2023-02-04T12:35:47;10.60;99.90
43087;DHT22;28708;52.224;6.924;2023-02-04T12:38:12;10.50;99.90
43087;DHT22;28708;52.224;6.924;2023-02-04T12:40:38;10.70;99.90
43087;DHT22;28708;52.224;6.924;2023-02-04T12:43:04;10.60;99.90
43087;DHT22;28708;52.224;6.924;2023-02-04T12:45:31;10.10;99.90
43087;DHT22;28708;52.224;6.924;2023-02-04T12:47:57;9.90;99.90
43087;DHT22;28708;52.224;6.924;2023-02-04T12:50:22;9.70;99.90
43087;DHT22;28708;52.224;6.924;2023-02-04T12:52:53;9.60;99.90
43087;DHT22;28708;52.224;6.924;2023-02-04T12:55:20;9.30;99.90
43087;DHT22;28708;52.224;6.924;2023-02-04T12:57:46;9.20;99.90
43087;DHT22;28708;52.224;6.924;2023-02-04T13:00:13;9.30;99.90
43087;DHT22;28708;52.224;6.924;2023-02-04T13:02:39;9.40;99.90
43087;DHT22;28708;52.224;6.924;2023-02-04T13:05:05;9.30;99.90
43087;DHT22;28708;52.224;6.924;2023-02-04T13:07:31;9.20;99.90
43087;DHT22;28708;52.224;6.924;2023-02-04T13:09:58;8.90;99.90
43087;DHT22;28708;52.224;6.924;2023-02-04T13:12:24;8.90;99.90
43087;DHT22;28708;52.224;6.924;2023-02-04T13:14:49;9.00;99.90
43087;DHT22;28708;52.224;6.924;2023-02-04T13:17:16;9.10;99.90
43087;DHT22;28708;52.224;6.924;2023-02-04T13:19:41;9.20;99.90
43087;DHT22;28708;52.224;6.924;2023-02-04T13:22:07;9.30;99.90
43087;DHT22;28708;52.224;6.924;2023-02-04T13:24:33;9.40;99.90
43087;DHT22;28708;52.224;6.924;2023-02-04T13:26:59;9.60;99.90
43087;DHT22;28708;52.224;6.924;2023-02-04T13:29:24;9.60;99.90
43087;DHT22;28708;52.224;6.924;2023-02-04T13:31:50;9.60;99.90
43087;DHT22;28708;52.224;6.924;2023-02-04T13:34:16;9.60;99.90
43087;DHT22;28708;52.224;6.924;2023-02-04T13:36:42;9.50;99.90
43087;DHT22;28708;52.224;6.924;2023-02-04T13:39:09;9.50;99.90
43087;DHT22;28708;52.224;6.924;2023-02-04T13:41:34;9.40;99.90
43087;DHT22;28708;52.224;6.924;2023-02-04T13:44:01;9.50;99.90
43087;DHT22;28708;52.224;6.924;2023-02-04T13:46:27;9.60;99.90
43087;DHT22;28708;52.224;6.924;2023-02-04T13:48:53;9.70;99.90
43087;DHT22;28708;52.224;6.924;2023-02-04T13:51:18;9.70;99.90
43087;DHT22;28708;52.224;6.924;2023-02-04T13:53:44;9.60;99.90
43087;DHT22;28708;52.224;6.924;2023-02-04T13:56:09;9.60;99.90
43087;DHT22;28708;52.224;6.924;2023-02-04T13:58:35;9.60;99.90
43087;DHT22;28708;52.224;6.924;2023-02-04T14:01:01;9.70;99.90
43087;DHT22;28708;52.224;6.924;2023-02-04T14:03:28;9.60;99.90
43087;DHT22;28708;52.224;6.924;2023-02-04T14:05:54;9.70;99.90
43087;DHT22;28708;52.224;6.924;2023-02-04T14:08:21;9.80;99.90
43087;DHT22;28708;52.224;6.924;2023-02-04T14:10:48;9.70;99.90
43087;DHT22;28708;52.224;6.924;2023-02-04T14:13:14;9.80;99.90
43087;DHT22;28708;52.224;6.924;2023-02-04T14:15:39;9.80;99.90
43087;DHT22;28708;52.224;6.924;2023-02-04T14:18:07;9.90;99.90
43087;DHT22;28708;52.224;6.924;2023-02-04T14:20:33;9.90;99.90
43087;DHT22;28708;52.224;6.924;2023-02-04T14:22:59;9.80;99.90
43087;DHT22;28708;52.224;6.924;2023-02-04T14:25:25;9.80;99.90
43087;DHT22;28708;52.224;6.924;2023-02-04T14:27:50;9.70;99.90
43087;DHT22;28708;52.224;6.924;2023-02-04T14:30:24;9.50;99.90
43087;DHT22;28708;52.224;6.924;2023-02-04T14:32:51;9.40;99.90
43087;DHT22;28708;52.224;6.924;2023-02-04T14:35:17;9.40;99.90
43087;DHT22;28708;52.224;6.924;2023-02-04T14:37:43;9.40;99.90
43087;DHT22;28708;52.224;6.924;2023-02-04T14:40:10;9.40;99.90
43087;DHT22;28708;52.224;6.924;2023-02-04T14:42:36;9.30;99.90
43087;DHT22;28708;52.224;6.924;2023-02-04T14:45:04;9.30;99.90
43087;DHT22;28708;52.224;6.924;2023-02-04T14:47:34;9.40;99.90
43087;DHT22;28708;52.224;6.924;2023-02-04T14:50:00;9.40;99.90
43087;DHT22;28708;52.224;6.924;2023-02-04T14:52:27;9.40;99.90
43087;DHT22;28708;52.224;6.924;2023-02-04T14:54:52;9.40;99.90
43087;DHT22;28708;52.224;6.924;2023-02-04T14:57:18;9.30;99.90
43087;DHT22;28708;52.224;6.924;2023-02-04T14:59:44;9.40;99.90
43087;DHT22;28708;52.224;6.924;2023-02-04T15:02:10;9.40;99.90
43087;DHT22;28708;52.224;6.924;2023-02-04T15:04:36;9.20;99.90
43087;DHT22;28708;52.224;6.924;2023-02-04T15:07:02;9.20;99.90
43087;DHT22;28708;52.224;6.924;2023-02-04T15:09:28;9.10;99.90
43087;DHT22;28708;52.224;6.924;2023-02-04T15:11:54;9.00;99.90
43087;DHT22;28708;52.224;6.924;2023-02-04T15:14:20;9.00;99.90
43087;DHT22;28708;52.224;6.924;2023-02-04T15:16:46;9.00;99.90
43087;DHT22;28708;52.224;6.924;2023-02-04T15:19:16;8.90;99.90
43087;DHT22;28708;52.224;6.924;2023-02-04T15:21:43;8.90;99.90
43087;DHT22;28708;52.224;6.924;2023-02-04T15:24:09;8.70;99.90
43087;DHT22;28708;52.224;6.924;2023-02-04T15:26:36;8.60;99.90
43087;DHT22;28708;52.224;6.924;2023-02-04T15:29:02;8.60;99.90
43087;DHT22;28708;52.224;6.924;2023-02-04T15:31:28;8.60;99.90
43087;DHT22;28708;52.224;6.924;2023-02-04T15:33:54;8.50;99.90
43087;DHT22;28708;52.224;6.924;2023-02-04T15:36:19;8.50;99.90
43087;DHT22;28708;52.224;6.924;2023-02-04T15:38:46;8.40;99.90
43087;DHT22;28708;52.224;6.924;2023-02-04T15:41:12;8.40;99.90
43087;DHT22;28708;52.224;6.924;2023-02-04T15:43:37;8.30;99.90
43087;DHT22;28708;52.224;6.924;2023-02-04T15:46:03;8.30;99.90
43087;DHT22;28708;52.224;6.924;2023-02-04T15:48:29;8.20;99.90
43087;DHT22;28708;52.224;6.924;2023-02-04T15:50:54;8.20;99.90
43087;DHT22;28708;52.224;6.924;2023-02-04T15:53:21;8.20;99.90
43087;DHT22;28708;52.224;6.924;2023-02-04T15:55:47;8.10;99.90
43087;DHT22;28708;52.224;6.924;2023-02-04T15:58:13;8.10;99.90
43087;DHT22;28708;52.224;6.924;2023-02-04T16:00:39;8.10;99.90
43087;DHT22;28708;52.224;6.924;2023-02-04T16:03:04;8.10;99.90
43087;DHT22;28708;52.224;6.924;2023-02-04T16:05:30;8.10;99.90